createdAt,value
2023-05-30T00:01:01.346Z,3.70
2023-05-30T00:02:03.784Z,3.93
2023-05-30T00:03:06.104Z,4.31
2023-05-30T00:04:08.582Z,4.23
2023-05-30T00:05:11.858Z,3.99
2023-05-30T00:06:15.379Z,4.95
2023-05-30T00:07:18.610Z,4.58
2023-05-30T00:08:22.653Z,4.88
2023-05-30T00:09:25.855Z,4.93
2023-05-30T00:10:28.009Z,5.53
2023-05-30T00:11:31.066Z,5.32
2023-05-30T00:12:33.076Z,4.95
2023-05-30T00:13:35.174Z,5.11
2023-05-30T00:14:37.095Z,5.45
2023-05-30T00:15:38.995Z,5.37
2023-05-30T00:16:41.000Z,5.42
2023-05-30T00:17:42.939Z,4.55
2023-05-30T00:18:45.207Z,4.40
2023-05-30T00:19:47.383Z,4.59
2023-05-30T00:20:50.966Z,4.08
2023-05-30T00:21:52.995Z,3.91
2023-05-30T00:22:55.025Z,3.92
2023-05-30T00:23:56.951Z,3.85
2023-05-30T00:24:58.941Z,3.99
2023-05-30T00:26:01.177Z,3.44
2023-05-30T00:27:04.023Z,3.57
2023-05-30T00:28:06.105Z,3.81
2023-05-30T00:29:08.077Z,3.97
2023-05-30T00:30:12.572Z,3.37
2023-05-30T00:31:14.579Z,3.71
2023-05-30T00:32:16.832Z,3.91
2023-05-30T00:33:19.999Z,3.95
2023-05-30T00:34:21.902Z,3.33
2023-05-30T00:35:23.908Z,3.47
2023-05-30T00:36:25.874Z,3.41
2023-05-30T00:37:27.760Z,3.44
2023-05-30T00:38:29.732Z,3.43
2023-05-30T00:39:31.799Z,2.97
2023-05-30T00:40:33.806Z,2.90
2023-05-30T00:41:35.790Z,3.00
2023-05-30T00:42:37.762Z,3.07
2023-05-30T00:43:39.876Z,3.27
2023-05-30T00:44:41.918Z,3.61
2023-05-30T00:45:43.906Z,3.39
2023-05-30T00:46:46.246Z,3.57
2023-05-30T00:47:50.561Z,3.45
2023-05-30T00:48:53.069Z,3.09
2023-05-30T00:49:55.862Z,2.93
2023-05-30T00:50:59.085Z,3.04
2023-05-30T00:52:02.710Z,3.19
2023-05-30T00:53:06.110Z,3.71
2023-05-30T00:54:08.156Z,3.13
2023-05-30T00:55:10.074Z,3.46
2023-05-30T00:56:12.290Z,3.17
2023-05-30T00:57:17.654Z,3.21
2023-05-30T00:58:20.548Z,3.01
2023-05-30T00:59:22.996Z,2.67
2023-05-30T01:00:29.621Z,3.25
2023-05-30T01:01:32.098Z,3.23
2023-05-30T01:02:34.253Z,3.67
2023-05-30T01:03:37.346Z,3.29
2023-05-30T01:04:39.788Z,3.74
2023-05-30T01:05:44.447Z,3.45
2023-05-30T01:06:46.700Z,3.50
2023-05-30T01:07:48.646Z,3.67
2023-05-30T01:08:50.528Z,3.46
2023-05-30T01:09:52.733Z,3.81
2023-05-30T01:10:58.299Z,3.49
2023-05-30T01:12:31.772Z,3.62
2023-05-30T01:13:38.624Z,3.73
2023-05-30T01:14:53.569Z,3.89
2023-05-30T01:16:05.037Z,3.52
2023-05-30T01:17:10.857Z,3.26
2023-05-30T01:18:25.640Z,3.56
2023-05-30T01:19:31.442Z,3.46
2023-05-30T01:20:41.437Z,3.36
2023-05-30T01:21:44.837Z,3.03
2023-05-30T01:23:10.532Z,4.26
2023-05-30T01:25:50.234Z,3.92
2023-05-30T01:26:56.017Z,3.71
2023-05-30T01:28:11.135Z,3.90
2023-05-30T01:29:20.506Z,3.12
2023-05-30T01:30:24.837Z,3.58
2023-05-30T01:31:27.427Z,3.39
2023-05-30T01:32:30.015Z,3.06
2023-05-30T01:33:33.653Z,3.61
2023-05-30T01:34:35.760Z,3.36
2023-05-30T01:35:37.724Z,3.58
2023-05-30T01:36:39.915Z,3.37
2023-05-30T01:37:42.374Z,3.37
2023-05-30T01:38:44.260Z,3.76
2023-05-30T01:39:46.332Z,3.93
2023-05-30T01:40:51.843Z,3.35
2023-05-30T01:42:14.545Z,3.14
2023-05-30T01:43:26.599Z,2.92
2023-05-30T01:44:43.215Z,3.14
2023-05-30T01:46:10.365Z,3.08
2023-05-30T01:47:24.952Z,2.82
2023-05-30T01:48:36.574Z,2.90
2023-05-30T01:49:42.345Z,3.08
2023-05-30T01:50:48.158Z,2.76
2023-05-30T01:51:56.735Z,3.21
2023-05-30T01:53:00.894Z,3.63
2023-05-30T01:54:06.430Z,3.27
2023-05-30T01:55:10.665Z,3.13
2023-05-30T01:56:15.025Z,2.92
2023-05-30T01:57:18.701Z,4.06
2023-05-30T01:58:22.474Z,3.21
2023-05-30T01:59:27.222Z,2.72
2023-05-30T02:00:30.101Z,2.91
2023-05-30T02:01:33.089Z,2.79
2023-05-30T02:02:35.188Z,2.99
2023-05-30T02:03:37.331Z,2.93
2023-05-30T02:04:40.573Z,2.36
2023-05-30T02:05:42.574Z,2.83
2023-05-30T02:06:46.024Z,2.60
2023-05-30T02:07:48.724Z,3.08
2023-05-30T02:08:51.118Z,3.09
2023-05-30T02:09:53.109Z,2.74
2023-05-30T02:10:55.201Z,2.49
2023-05-30T02:11:57.400Z,2.96
2023-05-30T02:13:00.024Z,3.60
2023-05-30T02:14:02.118Z,3.31
2023-05-30T02:15:05.528Z,3.74
2023-05-30T02:16:09.233Z,3.26
2023-05-30T02:17:11.367Z,3.21
2023-05-30T02:18:13.349Z,3.02
2023-05-30T02:19:15.644Z,3.19
2023-05-30T02:20:17.974Z,3.13
2023-05-30T02:21:20.422Z,3.51
2023-05-30T02:22:22.461Z,3.46
2023-05-30T02:23:24.349Z,3.26
2023-05-30T02:24:26.365Z,3.63
2023-05-30T02:25:28.621Z,3.29
2023-05-30T02:26:30.727Z,3.63
2023-05-30T02:27:32.670Z,3.22
2023-05-30T02:28:34.574Z,3.19
2023-05-30T02:29:36.951Z,2.86
2023-05-30T02:30:39.277Z,3.21
2023-05-30T02:31:41.497Z,2.88
2023-05-30T02:32:44.726Z,2.73
2023-05-30T02:33:46.687Z,3.22
2023-05-30T02:34:48.683Z,3.09
2023-05-30T02:35:50.805Z,2.71
2023-05-30T02:36:54.939Z,2.92
2023-05-30T02:37:56.901Z,2.89
2023-05-30T02:39:06.798Z,3.21
2023-05-30T02:40:10.626Z,3.51
2023-05-30T02:41:12.645Z,3.04
2023-05-30T02:42:14.708Z,2.99
2023-05-30T02:43:20.923Z,3.15
2023-05-30T02:44:20.481Z,3.18
2023-05-30T02:45:22.508Z,2.95
2023-05-30T02:46:24.635Z,3.25
2023-05-30T02:47:26.635Z,3.05
2023-05-30T02:48:32.600Z,3.39
2023-05-30T02:49:34.846Z,3.22
2023-05-30T02:50:37.632Z,3.49
2023-05-30T02:51:42.083Z,3.03
2023-05-30T02:52:44.143Z,3.18
2023-05-30T02:53:46.149Z,3.03
2023-05-30T02:54:48.936Z,2.90
2023-05-30T02:55:50.831Z,2.91
2023-05-30T02:56:52.852Z,2.67
2023-05-30T02:57:54.756Z,2.67
2023-05-30T02:58:56.785Z,3.09
2023-05-30T02:59:58.921Z,3.12
2023-05-30T03:01:01.000Z,3.29
2023-05-30T03:02:05.174Z,3.53
2023-05-30T03:03:08.083Z,3.72
2023-05-30T03:04:10.251Z,3.30
2023-05-30T03:05:12.351Z,3.73
2023-05-30T03:06:14.603Z,3.13
2023-05-30T03:07:16.684Z,2.45
2023-05-30T03:08:26.141Z,2.43
2023-05-30T03:09:22.588Z,2.68
2023-05-30T03:10:24.820Z,2.90
2023-05-30T03:11:26.714Z,2.73
2023-05-30T03:12:28.637Z,2.80
2023-05-30T03:13:30.721Z,2.54
2023-05-30T03:14:32.742Z,2.59
2023-05-30T03:15:34.765Z,2.45
2023-05-30T03:16:36.899Z,2.30
2023-05-30T03:17:42.507Z,2.69
2023-05-30T03:18:44.618Z,2.34
2023-05-30T03:19:46.771Z,2.64
2023-05-30T03:20:49.069Z,2.55
2023-05-30T03:21:51.250Z,2.53
2023-05-30T03:22:53.365Z,2.99
2023-05-30T03:23:56.365Z,2.97
2023-05-30T03:24:58.928Z,3.12
2023-05-30T03:26:02.025Z,2.81
2023-05-30T03:27:04.369Z,3.30
2023-05-30T03:28:06.296Z,3.03
2023-05-30T03:29:08.411Z,2.64
2023-05-30T03:30:12.179Z,2.97
2023-05-30T03:31:14.146Z,2.71
2023-05-30T03:32:16.956Z,2.98
2023-05-30T03:33:18.960Z,2.41
2023-05-30T03:34:20.880Z,2.75
2023-05-30T03:35:22.962Z,2.76
2023-05-30T03:36:25.182Z,2.41
2023-05-30T03:37:27.190Z,2.71
2023-05-30T03:38:29.236Z,2.97
2023-05-30T03:39:31.220Z,2.57
2023-05-30T03:40:33.207Z,2.79
2023-05-30T03:41:35.088Z,2.72
2023-05-30T03:42:38.016Z,2.53
2023-05-30T03:43:40.909Z,2.62
2023-05-30T03:44:42.807Z,3.03
2023-05-30T03:45:44.745Z,3.39
2023-05-30T03:46:46.873Z,3.51
2023-05-30T03:47:48.922Z,3.19
2023-05-30T03:48:50.829Z,3.18
2023-05-30T03:49:54.189Z,3.83
2023-05-30T03:50:56.897Z,3.70
2023-05-30T03:51:59.044Z,3.51
2023-05-30T03:53:00.941Z,3.19
2023-05-30T03:54:04.261Z,3.47
2023-05-30T03:55:07.047Z,3.57
2023-05-30T03:56:09.761Z,2.92
2023-05-30T03:57:13.344Z,3.00
2023-05-30T03:58:15.242Z,3.46
2023-05-30T03:59:18.955Z,2.63
2023-05-30T04:00:20.968Z,3.06
2023-05-30T04:01:24.031Z,3.24
2023-05-30T04:02:26.133Z,3.10
2023-05-30T04:03:29.738Z,3.19
2023-05-30T04:04:31.908Z,2.87
2023-05-30T04:05:33.909Z,2.85
2023-05-30T04:06:37.186Z,2.80
2023-05-30T04:07:39.076Z,2.57
2023-05-30T04:08:41.080Z,2.33
2023-05-30T04:09:43.177Z,2.73
2023-05-30T04:10:45.175Z,2.59
2023-05-30T04:11:47.153Z,2.78
2023-05-30T04:12:49.040Z,2.25
2023-05-30T04:13:51.124Z,2.97
2023-05-30T04:14:52.998Z,2.51
2023-05-30T04:15:54.955Z,2.53
2023-05-30T04:16:57.187Z,3.27
2023-05-30T04:18:00.314Z,3.07
2023-05-30T04:19:02.479Z,3.41
2023-05-30T04:20:06.098Z,2.58
2023-05-30T04:21:08.128Z,3.45
2023-05-30T04:22:09.996Z,2.49
2023-05-30T04:23:12.119Z,2.77
2023-05-30T04:24:14.171Z,3.59
2023-05-30T04:25:16.496Z,3.20
2023-05-30T04:26:18.621Z,3.47
2023-05-30T04:27:20.682Z,3.13
2023-05-30T04:28:24.657Z,2.63
2023-05-30T04:29:26.611Z,3.16
2023-05-30T04:30:28.599Z,3.26
2023-05-30T04:31:30.656Z,2.55
2023-05-30T04:32:33.150Z,2.37
2023-05-30T04:33:37.456Z,2.80
2023-05-30T04:34:39.388Z,2.69
2023-05-30T04:35:41.276Z,2.69
2023-05-30T04:36:43.243Z,3.09
2023-05-30T04:37:45.259Z,2.93
2023-05-30T04:38:49.486Z,3.04
2023-05-30T04:39:51.532Z,2.58
2023-05-30T04:40:53.548Z,2.62
2023-05-30T04:41:55.434Z,2.32
2023-05-30T04:42:57.314Z,2.63
2023-05-30T04:43:59.654Z,2.13
2023-05-30T04:45:01.962Z,2.23
2023-05-30T04:46:11.085Z,1.55
2023-05-30T04:47:08.473Z,1.75
2023-05-30T04:48:10.530Z,2.15
2023-05-30T04:49:15.148Z,1.53
2023-05-30T04:50:17.719Z,1.63
2023-05-30T04:51:21.256Z,1.80
2023-05-30T04:52:23.303Z,1.59
2023-05-30T04:53:25.490Z,2.25
2023-05-30T04:54:27.483Z,2.19
2023-05-30T04:55:29.422Z,1.59
2023-05-30T04:56:31.547Z,1.57
2023-05-30T04:57:33.881Z,1.84
2023-05-30T04:58:35.790Z,1.91
2023-05-30T04:59:39.508Z,1.50
2023-05-30T05:00:42.011Z,1.77
2023-05-30T05:01:44.176Z,1.75
2023-05-30T05:02:46.412Z,1.75
2023-05-30T05:03:48.892Z,1.47
2023-05-30T05:04:50.984Z,1.67
2023-05-30T05:05:52.865Z,1.47
2023-05-30T05:06:54.998Z,1.35
2023-05-30T05:07:56.930Z,1.83
2023-05-30T05:09:00.698Z,2.55
2023-05-30T05:10:03.129Z,1.51
2023-05-30T05:11:06.669Z,1.79
2023-05-30T05:12:10.512Z,1.71
2023-05-30T05:13:12.662Z,1.47
2023-05-30T05:14:14.573Z,1.71
2023-05-30T05:15:16.483Z,1.65
2023-05-30T05:16:18.823Z,1.88
2023-05-30T05:17:21.160Z,1.52
2023-05-30T05:18:24.942Z,2.37
2023-05-30T05:19:26.994Z,1.62
2023-05-30T05:20:29.259Z,1.77
2023-05-30T05:21:31.330Z,1.71
2023-05-30T05:22:34.628Z,1.36
2023-05-30T05:23:36.554Z,1.55
2023-05-30T05:24:38.686Z,1.33
2023-05-30T05:25:41.352Z,1.71
2023-05-30T05:26:43.374Z,1.77
2023-05-30T05:27:45.555Z,2.08
2023-05-30T05:28:48.600Z,1.87
2023-05-30T05:29:50.572Z,1.49
2023-05-30T05:30:52.567Z,1.39
2023-05-30T05:31:55.667Z,2.06
2023-05-30T05:32:57.809Z,1.37
2023-05-30T05:34:00.022Z,1.76
2023-05-30T05:35:03.622Z,1.44
2023-05-30T05:36:06.677Z,1.67
2023-05-30T05:37:09.209Z,1.85
2023-05-30T05:38:11.137Z,1.25
2023-05-30T05:39:13.126Z,1.30
2023-05-30T05:40:15.422Z,1.39
2023-05-30T05:41:17.417Z,1.86
2023-05-30T05:42:19.342Z,1.37
2023-05-30T05:43:21.232Z,1.99
2023-05-30T05:44:24.593Z,2.11
2023-05-30T05:45:26.911Z,1.51
2023-05-30T05:46:28.953Z,1.66
2023-05-30T05:47:31.163Z,1.43
2023-05-30T05:48:33.443Z,1.56
2023-05-30T05:49:35.464Z,1.77
2023-05-30T05:50:37.566Z,1.41
2023-05-30T05:51:39.475Z,1.77
2023-05-30T05:52:41.530Z,1.68
2023-05-30T05:53:43.755Z,1.94
2023-05-30T05:54:45.636Z,2.25
2023-05-30T05:55:47.667Z,1.51
2023-05-30T05:56:49.722Z,1.77
2023-05-30T05:57:52.032Z,1.87
2023-05-30T05:58:54.539Z,1.66
2023-05-30T05:59:56.448Z,2.06
2023-05-30T06:00:58.794Z,1.53
2023-05-30T06:02:01.062Z,1.73
2023-05-30T06:03:06.103Z,1.52
2023-05-30T06:04:11.098Z,1.74
2023-05-30T06:05:13.274Z,1.31
2023-05-30T06:06:15.686Z,1.60
2023-05-30T06:07:19.380Z,1.91
2023-05-30T06:08:21.297Z,1.54
2023-05-30T06:09:23.207Z,1.45
2023-05-30T06:10:25.828Z,1.24
2023-05-30T06:11:27.826Z,1.25
2023-05-30T06:12:29.844Z,1.32
2023-05-30T06:13:31.857Z,1.79
2023-05-30T06:14:33.849Z,1.63
2023-05-30T06:15:35.767Z,1.54
2023-05-30T06:16:37.882Z,1.31
2023-05-30T06:17:39.986Z,1.39
2023-05-30T06:18:42.701Z,1.63
2023-05-30T06:19:45.157Z,1.43
2023-05-30T06:20:48.919Z,1.61
2023-05-30T06:21:51.125Z,1.29
2023-05-30T06:22:53.079Z,1.37
2023-05-30T06:23:55.090Z,1.17
2023-05-30T06:24:57.109Z,2.32
2023-05-30T06:25:59.000Z,2.05
2023-05-30T06:27:01.188Z,1.63
2023-05-30T06:28:04.129Z,1.25
2023-05-30T06:29:06.250Z,1.54
2023-05-30T06:30:09.442Z,1.39
2023-05-30T06:31:11.428Z,1.32
2023-05-30T06:32:16.580Z,1.33
2023-05-30T06:33:17.335Z,1.53
2023-05-30T06:34:19.371Z,1.08
2023-05-30T06:35:21.270Z,1.39
2023-05-30T06:36:23.416Z,1.68
2023-05-30T06:37:25.319Z,1.83
2023-05-30T06:38:27.323Z,1.45
2023-05-30T06:39:29.240Z,2.03
2023-05-30T06:40:31.399Z,1.39
2023-05-30T06:41:35.954Z,1.47
2023-05-30T06:42:37.891Z,1.91
2023-05-30T06:43:39.783Z,1.29
2023-05-30T06:44:42.376Z,1.01
2023-05-30T06:45:44.462Z,1.41
2023-05-30T06:46:46.598Z,1.20
2023-05-30T06:47:48.546Z,1.57
2023-05-30T06:48:50.514Z,1.38
2023-05-30T06:49:52.534Z,1.48
2023-05-30T06:50:56.960Z,1.95
2023-05-30T06:51:58.416Z,2.11
2023-05-30T06:53:00.533Z,1.59
2023-05-30T06:54:03.064Z,1.65
2023-05-30T06:55:06.091Z,1.81
2023-05-30T06:56:08.306Z,1.76
2023-05-30T06:57:10.189Z,1.69
2023-05-30T06:58:13.196Z,1.19
2023-05-30T06:59:15.097Z,1.36
2023-05-30T07:00:18.294Z,1.32
2023-05-30T07:01:20.494Z,1.36
2023-05-30T07:02:22.467Z,1.17
2023-05-30T07:03:24.498Z,1.22
2023-05-30T07:04:26.608Z,1.69
2023-05-30T07:05:29.779Z,1.08
2023-05-30T07:06:32.250Z,1.19
2023-05-30T07:07:36.665Z,1.45
2023-05-30T07:08:39.186Z,1.26
2023-05-30T07:09:41.221Z,1.63
2023-05-30T07:10:43.309Z,1.23
2023-05-30T07:11:48.696Z,1.62
2023-05-30T07:12:50.637Z,1.34
2023-05-30T07:13:53.067Z,1.29
2023-05-30T07:14:55.128Z,1.31
2023-05-30T07:15:57.206Z,0.95
2023-05-30T07:16:59.381Z,0.89
2023-05-30T07:18:01.786Z,1.21
2023-05-30T07:19:12.148Z,1.94
2023-05-30T07:20:09.322Z,1.14
2023-05-30T07:21:11.325Z,1.61
2023-05-30T07:22:13.333Z,1.27
2023-05-30T07:23:15.546Z,1.09
2023-05-30T07:24:17.465Z,1.22
2023-05-30T07:25:19.443Z,1.37
2023-05-30T07:26:22.471Z,0.97
2023-05-30T07:27:24.608Z,1.21
2023-05-30T07:28:26.700Z,1.21
2023-05-30T07:29:28.770Z,1.04
2023-05-30T07:30:31.328Z,1.27
2023-05-30T07:31:33.556Z,1.02
2023-05-30T07:32:35.784Z,1.14
2023-05-30T07:33:37.777Z,1.26
2023-05-30T07:34:41.577Z,1.15
2023-05-30T07:35:45.581Z,1.39
2023-05-30T07:36:47.631Z,1.03
2023-05-30T07:37:51.349Z,1.24
2023-05-30T07:38:53.296Z,1.02
2023-05-30T07:39:55.311Z,1.00
2023-05-30T07:40:57.583Z,1.41
2023-05-30T07:41:59.750Z,1.25
2023-05-30T07:43:01.859Z,1.17
2023-05-30T07:44:03.917Z,1.21
2023-05-30T07:45:07.223Z,1.77
2023-05-30T07:46:09.643Z,1.07
2023-05-30T07:47:11.590Z,1.13
2023-05-30T07:48:13.492Z,1.43
2023-05-30T07:49:15.540Z,1.63
2023-05-30T07:50:17.564Z,1.92
2023-05-30T07:51:19.826Z,1.37
2023-05-30T07:52:22.218Z,1.49
2023-05-30T07:53:24.346Z,1.79
2023-05-30T07:54:26.479Z,1.19
2023-05-30T07:55:28.669Z,1.59
2023-05-30T07:56:30.907Z,1.13
2023-05-30T07:57:33.200Z,1.49
2023-05-30T07:58:35.438Z,1.73
2023-05-30T07:59:37.449Z,1.29
2023-05-30T08:00:39.760Z,1.28
2023-05-30T08:01:41.755Z,1.22
2023-05-30T08:02:43.801Z,0.85
2023-05-30T08:03:45.878Z,1.01
2023-05-30T08:04:48.015Z,1.04
2023-05-30T08:05:50.270Z,1.09
2023-05-30T08:06:53.428Z,1.06
2023-05-30T08:07:55.453Z,1.13
2023-05-30T08:08:57.437Z,0.81
2023-05-30T08:09:59.416Z,0.80
2023-05-30T08:11:01.610Z,0.83
2023-05-30T08:12:05.064Z,1.25
2023-05-30T08:13:06.983Z,1.14
2023-05-30T08:14:09.001Z,1.24
2023-05-30T08:15:10.995Z,1.41
2023-05-30T08:16:14.191Z,1.33
2023-05-30T08:17:16.833Z,1.21
2023-05-30T08:18:19.485Z,1.17
2023-05-30T08:19:21.672Z,1.19
2023-05-30T08:20:23.807Z,0.81
2023-05-30T08:21:25.780Z,1.09
2023-05-30T08:22:27.708Z,1.13
2023-05-30T08:23:29.876Z,0.91
2023-05-30T08:24:31.869Z,1.09
2023-05-30T08:25:33.808Z,1.28
2023-05-30T08:26:35.947Z,1.27
2023-05-30T08:27:37.983Z,0.80
2023-05-30T08:28:39.862Z,1.07
2023-05-30T08:29:41.735Z,1.15
2023-05-30T08:30:46.889Z,0.86
2023-05-30T08:31:49.048Z,0.87
2023-05-30T08:32:53.258Z,1.13
2023-05-30T08:33:55.282Z,0.98
2023-05-30T08:34:57.268Z,1.39
2023-05-30T08:35:59.198Z,0.77
2023-05-30T08:37:01.724Z,0.96
2023-05-30T08:38:03.636Z,1.53
2023-05-30T08:39:15.180Z,0.93
2023-05-30T08:40:12.844Z,1.09
2023-05-30T08:41:14.892Z,1.09
2023-05-30T08:42:17.070Z,0.96
2023-05-30T08:43:19.858Z,1.07
2023-05-30T08:44:23.093Z,0.82
2023-05-30T08:45:25.701Z,1.51
2023-05-30T08:46:29.160Z,1.23
2023-05-30T08:47:32.194Z,1.20
2023-05-30T08:48:35.355Z,1.16
2023-05-30T08:49:39.581Z,1.07
2023-05-30T08:50:42.334Z,0.86
2023-05-30T08:51:44.450Z,1.35
2023-05-30T08:52:50.188Z,1.29
2023-05-30T08:53:58.938Z,1.14
2023-05-30T08:55:16.757Z,1.14
2023-05-30T08:57:43.930Z,0.95
2023-05-30T08:58:48.426Z,0.97
2023-05-30T08:59:53.327Z,1.14
2023-05-30T09:00:57.621Z,1.05
2023-05-30T09:02:00.994Z,1.42
2023-05-30T09:03:05.756Z,0.86
2023-05-30T09:04:09.088Z,0.83
2023-05-30T09:05:13.157Z,0.90
2023-05-30T09:06:18.236Z,0.98
2023-05-30T09:07:21.993Z,1.53
2023-05-30T09:08:27.406Z,1.77
2023-05-30T09:09:33.129Z,1.48
2023-05-30T09:10:38.762Z,1.33
2023-05-30T09:11:43.939Z,0.91
2023-05-30T09:12:46.120Z,0.87
2023-05-30T09:13:48.287Z,1.23
2023-05-30T09:14:50.170Z,1.10
2023-05-30T09:15:52.452Z,0.82
2023-05-30T09:16:55.945Z,1.11
2023-05-30T09:17:58.100Z,1.16
2023-05-30T09:19:03.473Z,1.29
2023-05-30T09:20:06.436Z,1.15
2023-05-30T09:21:09.634Z,0.98
2023-05-30T09:22:11.958Z,0.90
2023-05-30T09:23:14.239Z,1.23
2023-05-30T09:24:16.700Z,0.85
2023-05-30T09:25:19.153Z,0.98
2023-05-30T09:26:21.373Z,1.11
2023-05-30T09:27:23.947Z,1.63
2023-05-30T09:28:27.748Z,1.05
2023-05-30T09:29:29.748Z,1.19
2023-05-30T09:30:31.952Z,1.37
2023-05-30T09:31:37.919Z,1.30
2023-05-30T09:32:40.161Z,1.06
2023-05-30T09:33:48.009Z,1.05
2023-05-30T09:34:57.062Z,1.14
2023-05-30T09:35:59.189Z,1.36
2023-05-30T09:37:04.225Z,1.75
2023-05-30T09:38:06.177Z,0.93
2023-05-30T09:39:08.263Z,1.11
2023-05-30T09:40:14.756Z,1.09
2023-05-30T09:41:16.697Z,1.37
2023-05-30T09:42:18.621Z,1.08
2023-05-30T09:43:30.900Z,1.08
2023-05-30T09:44:32.825Z,0.95
2023-05-30T09:45:34.720Z,1.06
2023-05-30T09:46:38.177Z,1.13
2023-05-30T09:48:57.122Z,1.16
2023-05-30T09:49:59.038Z,1.01
2023-05-30T09:51:02.339Z,0.93
2023-05-30T09:52:05.213Z,1.45
2023-05-30T09:53:08.248Z,1.13
2023-05-30T09:54:10.288Z,0.98
2023-05-30T09:55:16.484Z,1.01
2023-05-30T09:56:18.896Z,1.01
2023-05-30T09:57:22.111Z,0.90
2023-05-30T09:58:24.718Z,1.02
2023-05-30T09:59:26.661Z,0.98
2023-05-30T10:00:29.668Z,1.33
2023-05-30T10:01:46.465Z,1.20
2023-05-30T10:02:53.889Z,0.87
2023-05-30T10:03:56.373Z,1.28
2023-05-30T10:04:58.498Z,1.13
2023-05-30T10:06:05.372Z,1.03
2023-05-30T10:07:07.439Z,1.69
2023-05-30T10:08:11.175Z,1.16
2023-05-30T10:09:15.109Z,1.32
2023-05-30T10:10:18.771Z,0.80
2023-05-30T10:11:20.988Z,1.36
2023-05-30T10:12:25.216Z,0.89
2023-05-30T10:13:27.124Z,1.33
2023-05-30T10:14:29.141Z,1.86
2023-05-30T10:15:31.652Z,1.15
2023-05-30T10:16:35.572Z,1.01
2023-05-30T10:17:41.372Z,0.88
2023-05-30T10:18:52.956Z,0.99
2023-05-30T10:20:03.582Z,1.13
2023-05-30T10:21:08.054Z,1.11
2023-05-30T10:22:14.494Z,1.51
2023-05-30T10:23:17.332Z,1.27
2023-05-30T10:24:21.067Z,1.67
2023-05-30T10:25:26.838Z,1.27
2023-05-30T10:27:51.624Z,1.21
2023-05-30T10:28:55.296Z,1.12
2023-05-30T10:30:05.918Z,1.83
2023-05-30T10:31:10.376Z,1.51
2023-05-30T10:32:15.793Z,1.16
2023-05-30T10:33:30.133Z,1.32
2023-05-30T10:34:28.313Z,1.39
2023-05-30T10:35:32.868Z,0.98
2023-05-30T10:36:35.201Z,1.12
2023-05-30T10:37:38.224Z,1.23
2023-05-30T10:40:22.536Z,1.28
2023-05-30T10:41:31.313Z,1.53
2023-05-30T10:42:55.114Z,1.42
2023-05-30T10:44:12.335Z,1.16
2023-05-30T10:45:17.569Z,1.21
2023-05-30T10:46:51.900Z,1.14
2023-05-30T10:48:01.430Z,1.24
2023-05-30T10:49:07.281Z,0.86
2023-05-30T10:50:16.787Z,1.35
2023-05-30T10:51:20.372Z,1.37
2023-05-30T10:52:33.247Z,1.09
2023-05-30T10:53:44.762Z,1.06
2023-05-30T10:54:47.518Z,1.53
2023-05-30T10:55:49.807Z,1.79
2023-05-30T10:56:51.933Z,1.37
2023-05-30T10:57:54.013Z,1.22
2023-05-30T10:58:56.311Z,0.98
2023-05-30T11:00:05.050Z,1.01
2023-05-30T11:01:30.531Z,1.11
2023-05-30T11:02:39.668Z,1.39
2023-05-30T11:03:45.744Z,1.46
2023-05-30T11:04:50.990Z,1.45
2023-05-30T11:05:55.391Z,1.09
2023-05-30T11:06:57.523Z,1.42
2023-05-30T11:08:01.634Z,1.68
2023-05-30T11:09:14.807Z,1.46
2023-05-30T11:10:25.608Z,1.62
2023-05-30T11:11:31.276Z,1.79
2023-05-30T11:12:35.738Z,1.18
2023-05-30T11:13:41.418Z,1.82
2023-05-30T11:14:47.124Z,1.41
2023-05-30T11:15:52.302Z,1.31
2023-05-30T11:17:07.406Z,1.67
2023-05-30T11:18:17.353Z,1.21
2023-05-30T11:19:19.363Z,1.37
2023-05-30T11:20:22.487Z,1.11
2023-05-30T11:21:57.818Z,1.32
2023-05-30T11:23:06.336Z,1.39
2023-05-30T11:24:08.477Z,1.24
2023-05-30T11:27:05.083Z,1.24
2023-05-30T11:28:10.767Z,1.16
2023-05-30T11:29:36.657Z,1.62
2023-05-30T11:30:47.868Z,1.24
2023-05-30T11:33:12.141Z,1.39
2023-05-30T11:34:14.772Z,1.13
2023-05-30T11:35:17.804Z,1.26
2023-05-30T11:36:23.196Z,1.30
2023-05-30T11:37:25.987Z,1.80
2023-05-30T11:38:28.044Z,1.38
2023-05-30T11:39:32.566Z,1.26
2023-05-30T11:40:34.606Z,1.32
2023-05-30T11:41:36.808Z,1.25
2023-05-30T11:42:38.944Z,1.17
2023-05-30T11:43:45.724Z,1.58
2023-05-30T11:44:48.367Z,1.51
2023-05-30T11:45:53.743Z,1.40
2023-05-30T11:47:12.788Z,1.28
2023-05-30T11:48:11.333Z,1.33
2023-05-30T11:49:13.428Z,1.28
2023-05-30T11:50:15.736Z,1.09
2023-05-30T11:51:17.855Z,2.32
2023-05-30T11:52:19.788Z,1.41
2023-05-30T11:53:21.769Z,1.41
2023-05-30T11:54:24.861Z,1.45
2023-05-30T11:55:26.824Z,1.36
2023-05-30T11:56:31.822Z,1.47
2023-05-30T11:57:34.212Z,0.98
2023-05-30T11:58:36.189Z,1.06
2023-05-30T11:59:41.375Z,0.83
2023-05-30T12:00:44.728Z,1.17
2023-05-30T12:01:57.565Z,1.15
2023-05-30T12:02:59.969Z,1.17
2023-05-30T12:04:04.642Z,0.95
2023-05-30T12:05:07.290Z,1.23
2023-05-30T12:06:12.908Z,1.45
2023-05-30T12:07:15.055Z,1.97
2023-05-30T12:08:17.327Z,1.57
2023-05-30T12:09:19.810Z,1.43
2023-05-30T12:10:29.654Z,1.71
2023-05-30T12:11:31.690Z,2.66
2023-05-30T12:12:34.785Z,2.09
2023-05-30T12:13:36.984Z,1.43
2023-05-30T12:14:42.059Z,1.22
2023-05-30T12:15:44.104Z,1.81
2023-05-30T12:16:54.677Z,1.33
2023-05-30T12:17:57.118Z,2.24
2023-05-30T12:18:59.384Z,2.97
2023-05-30T12:20:02.856Z,1.91
2023-05-30T12:21:05.650Z,1.80
2023-05-30T12:22:07.838Z,1.45
2023-05-30T12:23:10.004Z,3.61
2023-05-30T12:24:12.137Z,3.66
2023-05-30T12:25:14.769Z,2.69
2023-05-30T12:26:17.935Z,1.42
2023-05-30T12:27:22.067Z,1.65
2023-05-30T12:28:24.451Z,1.48
2023-05-30T12:29:26.505Z,1.41
2023-05-30T12:30:31.118Z,2.07
2023-05-30T12:31:34.614Z,1.38
2023-05-30T12:32:36.687Z,1.25
2023-05-30T12:33:38.654Z,1.49
2023-05-30T12:34:46.887Z,2.13
2023-05-30T12:35:54.041Z,1.63
2023-05-30T12:36:56.369Z,1.87
2023-05-30T12:37:59.424Z,1.53
2023-05-30T12:39:01.333Z,1.39
2023-05-30T12:40:05.468Z,1.15
2023-05-30T12:41:07.900Z,1.28
2023-05-30T12:42:10.139Z,1.21
2023-05-30T12:43:14.107Z,1.43
2023-05-30T12:44:17.605Z,1.34
2023-05-30T12:45:20.733Z,1.56
2023-05-30T12:46:27.681Z,1.52
2023-05-30T12:47:30.118Z,1.42
2023-05-30T12:48:34.167Z,2.44
2023-05-30T12:49:36.224Z,1.57
2023-05-30T12:50:39.733Z,1.42
2023-05-30T12:51:42.808Z,1.27
2023-05-30T12:52:44.811Z,2.38
2023-05-30T12:53:46.959Z,1.37
2023-05-30T12:54:50.606Z,2.06
2023-05-30T12:55:52.572Z,1.86
2023-05-30T12:56:54.614Z,1.60
2023-05-30T12:57:56.509Z,1.35
2023-05-30T12:58:58.511Z,1.31
2023-05-30T13:00:00.524Z,1.77
2023-05-30T13:01:03.856Z,1.52
2023-05-30T13:02:07.664Z,1.21
2023-05-30T13:03:10.000Z,1.68
2023-05-30T13:04:12.407Z,4.59
2023-05-30T13:05:14.890Z,4.02
2023-05-30T13:06:16.994Z,3.06
2023-05-30T13:07:19.966Z,3.11
2023-05-30T13:08:21.890Z,2.53
2023-05-30T13:09:24.131Z,1.79
2023-05-30T13:10:26.246Z,1.60
2023-05-30T13:11:28.199Z,1.40
2023-05-30T13:12:30.598Z,1.25
2023-05-30T13:13:32.536Z,1.42
2023-05-30T13:14:38.302Z,1.45
2023-05-30T13:15:40.391Z,1.28
2023-05-30T13:16:43.411Z,1.30
2023-05-30T13:17:45.511Z,1.12
2023-05-30T13:18:48.114Z,1.33
2023-05-30T13:19:50.025Z,1.23
2023-05-30T13:20:52.292Z,1.47
2023-05-30T13:21:54.543Z,1.68
2023-05-30T13:22:57.692Z,1.61
2023-05-30T13:23:59.832Z,1.56
2023-05-30T13:25:01.922Z,1.74
2023-05-30T13:26:04.063Z,1.96
2023-05-30T13:27:06.836Z,2.01
2023-05-30T13:28:08.850Z,1.55
2023-05-30T13:29:10.889Z,1.39
2023-05-30T13:30:15.507Z,1.13
2023-05-30T13:31:17.541Z,1.26
2023-05-30T13:32:19.520Z,1.70
2023-05-30T13:33:21.562Z,1.53
2023-05-30T13:34:23.655Z,1.19
2023-05-30T13:35:25.722Z,1.05
2023-05-30T13:36:28.038Z,1.46
2023-05-30T13:37:29.945Z,2.72
2023-05-30T13:38:32.772Z,6.19
2023-05-30T13:39:34.792Z,2.50
2023-05-30T13:40:37.000Z,2.26
2023-05-30T13:41:39.566Z,1.38
2023-05-30T13:42:41.491Z,1.93
2023-05-30T13:43:44.715Z,1.96
2023-05-30T13:44:47.586Z,1.27
2023-05-30T13:45:49.968Z,1.37
2023-05-30T13:46:52.102Z,1.79
2023-05-30T13:47:54.023Z,1.62
2023-05-30T13:48:55.981Z,1.71
2023-05-30T13:49:57.871Z,1.76
2023-05-30T13:51:01.170Z,2.64
2023-05-30T13:52:03.556Z,1.91
2023-05-30T13:53:05.533Z,1.35
2023-05-30T13:54:07.410Z,1.27
2023-05-30T13:55:09.352Z,1.35
2023-05-30T13:56:11.450Z,1.54
2023-05-30T13:57:13.457Z,1.94
2023-05-30T13:58:15.642Z,1.30
2023-05-30T13:59:17.625Z,1.62
2023-05-30T14:00:20.120Z,1.37
2023-05-30T14:01:23.915Z,1.45
2023-05-30T14:02:25.957Z,1.31
2023-05-30T14:03:28.786Z,1.49
2023-05-30T14:04:30.967Z,2.15
2023-05-30T14:05:32.914Z,2.16
2023-05-30T14:06:34.972Z,2.28
2023-05-30T14:07:38.198Z,1.43
2023-05-30T14:08:43.279Z,1.34
2023-05-30T14:09:45.350Z,1.59
2023-05-30T14:10:49.542Z,2.06
2023-05-30T14:11:52.270Z,1.67
2023-05-30T14:12:55.280Z,2.22
2023-05-30T14:13:57.309Z,1.47
2023-05-30T14:15:00.213Z,1.42
2023-05-30T14:16:02.386Z,1.75